Time;durP1;ratioP1;P1;durP2;ratioP2;P2;SDS_P1;SDS_P2;PMS_P1;PMS_P2;Temp;Humidity;BMP_temperature;BMP_pressure;BME280_temperature;BME280_humidity;BME280_pressure;Samples;Min_cycle;Max_cycle;Signal;HPM_P1;HPM_P2
2021/12/29 00:00:38;;;;;;;9.30;4.20;;;9.60;99.90;;;;;;5054765;28;20329;-61
2021/12/29 00:03:05;;;;;;;8.47;4.47;;;9.50;99.90;;;;;;5056270;28;20209;-59
2021/12/29 00:05:32;;;;;;;6.07;4.10;;;9.60;99.90;;;;;;5055778;28;20319;-60
2021/12/29 00:08:00;;;;;;;9.80;4.80;;;9.60;99.90;;;;;;5057558;28;20207;-59
2021/12/29 00:10:27;;;;;;;8.43;4.80;;;9.70;99.90;;;;;;5053090;28;20218;-60
2021/12/29 00:12:58;;;;;;;10.10;4.73;;;9.60;99.90;;;;;;5057736;28;20689;-62
2021/12/29 00:15:27;;;;;;;10.13;4.27;;;9.60;99.90;;;;;;5061281;28;20206;-60
2021/12/29 00:17:56;;;;;;;9.13;4.50;;;9.60;99.90;;;;;;5058122;28;20195;-62
2021/12/29 00:20:28;;;;;;;9.13;4.37;;;9.60;99.90;;;;;;5054992;28;20944;-58
2021/12/29 00:22:56;;;;;;;7.57;4.43;;;9.60;99.90;;;;;;5058729;28;20319;-59
2021/12/29 00:25:24;;;;;;;11.23;4.60;;;9.60;99.90;;;;;;5070456;28;20246;-62
2021/12/29 00:27:54;;;;;;;14.63;5.10;;;9.60;99.90;;;;;;5057154;28;20665;-62
2021/12/29 00:30:22;;;;;;;8.33;4.37;;;9.60;99.90;;;;;;5055603;28;20229;-61
2021/12/29 00:32:49;;;;;;;9.17;4.00;;;9.60;99.90;;;;;;5058109;28;20210;-61
2021/12/29 00:35:16;;;;;;;8.10;4.27;;;9.60;99.90;;;;;;5057533;28;20275;-60
2021/12/29 00:37:43;;;;;;;7.13;3.97;;;9.70;99.90;;;;;;5073040;28;20228;-61
2021/12/29 00:40:12;;;;;;;6.97;4.07;;;9.70;99.90;;;;;;5057564;28;20208;-61
2021/12/29 00:42:39;;;;;;;7.97;3.90;;;9.70;99.90;;;;;;5052592;28;20226;-60
2021/12/29 00:45:07;;;;;;;6.33;3.67;;;9.70;99.90;;;;;;5053371;28;20264;-58
2021/12/29 00:47:36;;;;;;;6.17;3.60;;;9.80;99.90;;;;;;5053744;28;20317;-59
2021/12/29 00:50:07;;;;;;;4.10;3.23;;;9.80;99.90;;;;;;5054373;28;20644;-61
2021/12/29 00:52:35;;;;;;;9.20;4.07;;;9.70;99.90;;;;;;5059034;28;20629;-61
2021/12/29 00:55:03;;;;;;;6.07;4.10;;;9.60;99.90;;;;;;5035969;28;20275;-59
2021/12/29 00:57:29;;;;;;;6.23;4.40;;;9.60;99.90;;;;;;5054360;28;20241;-60
2021/12/29 00:59:56;;;;;;;4.97;4.37;;;9.60;99.90;;;;;;5052358;28;20293;-59
2021/12/29 01:02:24;;;;;;;6.13;4.93;;;9.50;99.90;;;;;;5054518;28;20661;-59
2021/12/29 01:04:51;;;;;;;8.60;4.23;;;9.60;99.90;;;;;;5051226;28;20226;-59
2021/12/29 01:07:19;;;;;;;9.77;4.90;;;9.60;99.90;;;;;;5056198;28;20232;-59
2021/12/29 01:09:46;;;;;;;7.70;4.40;;;9.60;99.90;;;;;;5056480;28;20258;-60
2021/12/29 01:12:14;;;;;;;9.60;4.37;;;9.60;99.90;;;;;;5059978;28;20238;-62
2021/12/29 01:14:44;;;;;;;6.77;4.37;;;9.60;99.90;;;;;;5057267;28;20625;-60
2021/12/29 01:17:11;;;;;;;7.63;4.73;;;9.50;99.90;;;;;;5056603;28;20259;-63
2021/12/29 01:19:38;;;;;;;7.00;4.60;;;9.60;99.90;;;;;;5057860;28;20238;-61
2021/12/29 01:22:05;;;;;;;8.70;4.97;;;9.60;99.90;;;;;;5058556;28;20203;-60
2021/12/29 01:24:32;;;;;;;8.33;4.60;;;9.60;99.90;;;;;;5056487;28;20362;-59
2021/12/29 01:27:00;;;;;;;7.27;4.40;;;9.60;99.90;;;;;;5056161;28;20605;-60
2021/12/29 01:29:28;;;;;;;7.87;5.43;;;9.60;99.90;;;;;;5056369;28;20283;-60
2021/12/29 01:31:57;;;;;;;10.60;5.27;;;9.60;99.90;;;;;;5059403;28;20207;-59
2021/12/29 01:34:24;;;;;;;6.73;4.20;;;9.60;99.90;;;;;;5056550;28;20214;-60
2021/12/29 01:36:52;;;;;;;6.97;5.07;;;9.60;99.90;;;;;;5056946;28;20193;-59
2021/12/29 01:39:19;;;;;;;5.97;4.27;;;9.60;99.90;;;;;;5060426;28;20638;-59
2021/12/29 01:41:51;;;;;;;9.13;4.03;;;9.60;99.90;;;;;;5057971;28;20215;-60
2021/12/29 01:44:21;;;;;;;6.63;4.67;;;9.60;99.90;;;;;;5061474;28;20229;-58
2021/12/29 01:46:48;;;;;;;6.80;4.37;;;9.60;99.90;;;;;;5060044;28;20213;-59
2021/12/29 01:49:15;;;;;;;8.20;3.97;;;9.70;99.90;;;;;;5056050;28;20189;-60
2021/12/29 01:51:59;;;;;;;6.80;4.10;;;9.60;99.90;;;;;;5057276;28;20584;-61
2021/12/29 01:54:27;;;;;;;4.43;3.80;;;9.70;99.90;;;;;;5073390;28;20261;-61
2021/12/29 01:56:58;;;;;;;6.00;3.73;;;9.70;99.90;;;;;;5074352;28;20679;-61
2021/12/29 01:59:26;;;;;;;7.13;4.43;;;9.70;99.90;;;;;;5056826;28;20229;-59
2021/12/29 02:01:54;;;;;;;7.30;4.00;;;9.70;99.90;;;;;;5058099;28;20207;-59
2021/12/29 02:04:21;;;;;;;5.50;3.57;;;9.70;99.90;;;;;;5072239;28;20215;-60
2021/12/29 02:06:49;;;;;;;7.33;4.33;;;9.60;99.90;;;;;;5057382;28;20700;-61
2021/12/29 02:09:16;;;;;;;6.00;3.53;;;9.70;99.90;;;;;;5057944;28;20232;-61
2021/12/29 02:11:45;;;;;;;5.83;3.80;;;9.70;99.90;;;;;;5059358;28;20195;-59
2021/12/29 02:14:12;;;;;;;4.20;3.70;;;9.60;99.90;;;;;;5055284;28;20205;-60
2021/12/29 02:16:40;;;;;;;4.77;3.73;;;9.60;99.90;;;;;;5061099;28;20248;-61
2021/12/29 02:19:11;;;;;;;4.43;3.63;;;9.60;99.90;;;;;;5054547;28;20807;-61
2021/12/29 02:21:42;;;;;;;4.63;3.93;;;9.60;99.90;;;;;;5056421;28;20215;-61
2021/12/29 02:26:39;;;;;;;7.20;4.87;;;9.60;99.90;;;;;;5056557;28;20579;-61
2021/12/29 02:29:13;;;;;;;5.93;4.33;;;9.50;99.90;;;;;;5057948;28;20203;-61
2021/12/29 02:31:43;;;;;;;5.90;4.60;;;9.50;99.90;;;;;;5057385;28;20307;-61
2021/12/29 02:34:12;;;;;;;10.77;4.60;;;9.60;99.90;;;;;;5060288;28;20204;-60
2021/12/29 02:36:44;;;;;;;5.67;4.80;;;9.60;99.90;;;;;;5061650;28;20274;-61
2021/12/29 02:39:20;;;;;;;7.73;4.60;;;9.50;99.90;;;;;;5056299;28;23570;-60
2021/12/29 02:41:52;;;;;;;11.67;4.63;;;9.50;99.90;;;;;;5060649;28;20197;-60
2021/12/29 02:44:29;;;;;;;7.00;3.77;;;9.50;99.90;;;;;;5062781;28;20207;-59
2021/12/29 02:46:58;;;;;;;8.33;3.60;;;9.50;99.90;;;;;;5055638;28;20743;-62
2021/12/29 02:49:26;;;;;;;7.17;4.97;;;9.50;99.90;;;;;;5056508;28;20613;-59
2021/12/29 02:51:53;;;;;;;7.03;4.43;;;9.50;99.90;;;;;;5061099;28;20724;-61
2021/12/29 02:54:20;;;;;;;4.93;4.20;;;9.50;99.90;;;;;;5059115;28;20690;-61
2021/12/29 02:56:49;;;;;;;7.23;4.43;;;9.50;99.90;;;;;;5059168;28;20218;-61
2021/12/29 02:59:16;;;;;;;11.63;5.30;;;9.50;99.90;;;;;;5075188;28;21060;-60
2021/12/29 03:01:44;;;;;;;5.83;4.43;;;9.50;99.90;;;;;;5059526;28;20249;-62
2021/12/29 03:04:11;;;;;;;6.53;4.60;;;9.40;99.90;;;;;;5058520;28;20281;-59
2021/12/29 03:06:39;;;;;;;8.00;4.30;;;9.40;99.90;;;;;;5060834;28;20204;-59
2021/12/29 03:09:09;;;;;;;7.67;5.07;;;9.40;99.90;;;;;;5059176;28;20246;-59
2021/12/29 03:11:37;;;;;;;7.83;4.50;;;9.50;99.90;;;;;;5060853;28;20635;-62
2021/12/29 03:14:05;;;;;;;8.13;5.80;;;9.40;99.90;;;;;;5056054;28;20209;-62
2021/12/29 03:16:33;;;;;;;11.20;5.73;;;9.40;99.90;;;;;;5055962;28;20317;-58
2021/12/29 03:19:02;;;;;;;8.00;5.87;;;9.40;99.90;;;;;;5054644;28;20265;-59
2021/12/29 03:21:31;;;;;;;8.97;5.37;;;9.40;99.90;;;;;;5059116;28;20215;-59
2021/12/29 03:23:59;;;;;;;12.63;6.23;;;9.40;99.90;;;;;;5069288;28;20567;-61
2021/12/29 03:26:26;;;;;;;7.40;5.90;;;9.30;99.90;;;;;;5056831;28;20226;-61
2021/12/29 03:28:54;;;;;;;12.17;6.17;;;9.30;99.90;;;;;;5055588;28;20571;-58
2021/12/29 03:31:21;;;;;;;11.07;6.20;;;9.30;99.90;;;;;;5057376;28;20518;-61
2021/12/29 03:33:49;;;;;;;11.43;6.70;;;9.30;99.90;;;;;;5055216;28;20312;-58
2021/12/29 03:36:18;;;;;;;11.43;6.27;;;9.30;99.90;;;;;;5057633;28;20253;-59
2021/12/29 03:38:46;;;;;;;13.90;6.63;;;9.40;99.90;;;;;;5055376;28;20682;-60
2021/12/29 03:41:15;;;;;;;9.73;6.50;;;9.30;99.90;;;;;;5053375;28;21319;-60
2021/12/29 03:43:43;;;;;;;8.87;6.23;;;9.30;99.90;;;;;;5070408;28;20208;-61
2021/12/29 03:46:11;;;;;;;11.57;6.77;;;9.40;99.90;;;;;;5056997;28;20254;-60
2021/12/29 03:48:41;;;;;;;11.07;6.13;;;9.30;99.90;;;;;;5051804;28;20707;-61
2021/12/29 03:51:08;;;;;;;9.27;5.93;;;9.40;99.90;;;;;;5053400;28;20544;-61
2021/12/29 03:53:36;;;;;;;12.47;6.10;;;9.40;99.90;;;;;;5056575;28;20197;-59
2021/12/29 03:56:04;;;;;;;11.57;5.97;;;9.40;99.90;;;;;;5053984;28;20213;-61
2021/12/29 03:58:32;;;;;;;9.10;5.87;;;9.30;99.90;;;;;;5052054;28;20307;-60
2021/12/29 04:01:09;;;;;;;11.30;6.20;;;9.40;99.90;;;;;;5056489;28;20299;-58
2021/12/29 04:03:36;;;;;;;11.20;6.20;;;9.40;99.90;;;;;;5056331;28;20220;-59
2021/12/29 04:06:03;;;;;;;13.40;6.23;;;9.40;99.90;;;;;;5054386;28;20906;-60
2021/12/29 04:08:30;;;;;;;13.03;6.73;;;9.30;99.90;;;;;;5054261;28;20823;-60
2021/12/29 04:10:57;;;;;;;8.47;6.03;;;9.30;99.90;;;;;;5056859;28;20205;-59
2021/12/29 04:13:24;;;;;;;9.00;5.47;;;9.40;99.90;;;;;;5054481;28;20584;-59
2021/12/29 04:15:52;;;;;;;9.47;6.27;;;9.40;99.90;;;;;;5057796;28;20214;-60
2021/12/29 04:18:30;;;;;;;10.73;6.93;;;9.40;99.90;;;;;;5053828;28;20214;-60
2021/12/29 04:21:02;;;;;;;11.80;6.67;;;9.50;99.90;;;;;;5058035;28;20228;-61
2021/12/29 04:23:31;;;;;;;8.70;6.37;;;9.40;99.90;;;;;;5057006;28;20244;-61
2021/12/29 04:26:01;;;;;;;15.70;6.60;;;9.40;99.90;;;;;;5056395;28;20230;-61
2021/12/29 04:28:29;;;;;;;11.30;6.63;;;9.40;99.90;;;;;;5058715;28;20211;-62
2021/12/29 04:31:00;;;;;;;10.03;6.07;;;9.40;99.90;;;;;;5058794;28;20226;-60
2021/12/29 04:33:28;;;;;;;8.03;6.60;;;9.40;99.90;;;;;;5075794;28;20191;-59
2021/12/29 04:35:56;;;;;;;12.93;7.07;;;9.50;99.90;;;;;;5059980;28;20650;-60
2021/12/29 04:38:24;;;;;;;11.23;6.90;;;9.50;99.90;;;;;;5057299;28;20202;-60
2021/12/29 04:40:54;;;;;;;13.53;6.60;;;9.50;99.90;;;;;;5054964;28;20651;-60
2021/12/29 04:43:23;;;;;;;11.73;7.50;;;9.50;99.90;;;;;;5054346;28;20229;-60
2021/12/29 04:45:50;;;;;;;12.57;7.07;;;9.60;99.90;;;;;;5056531;28;20594;-60
2021/12/29 04:48:18;;;;;;;12.03;7.57;;;9.50;99.90;;;;;;5055848;28;20226;-60
2021/12/29 04:51:03;;;;;;;14.47;7.20;;;9.40;99.90;;;;;;5058060;28;20241;-61
2021/12/29 04:53:32;;;;;;;13.20;7.20;;;9.50;99.90;;;;;;5061211;28;20199;-62
2021/12/29 04:55:59;;;;;;;17.50;7.73;;;9.40;99.90;;;;;;5055600;28;20261;-59
2021/12/29 04:58:26;;;;;;;13.47;7.83;;;9.40;99.90;;;;;;5058524;28;20592;-59
2021/12/29 05:00:53;;;;;;;14.77;8.20;;;9.50;99.90;;;;;;5055612;28;20259;-60
2021/12/29 05:03:21;;;;;;;11.17;7.57;;;9.40;99.90;;;;;;5052089;28;20207;-59
2021/12/29 05:08:24;;;;;;;12.20;8.23;;;9.30;99.90;;;;;;5051505;28;20548;-60
2021/12/29 05:08:44;;;;;;;19.83;8.13;;;9.30;99.90;;;;;;5051743;28;20328;-62
2021/12/29 05:11:13;;;;;;;16.10;8.60;;;9.30;99.90;;;;;;5058437;28;20212;-59
2021/12/29 05:13:43;;;;;;;13.53;8.20;;;9.20;99.90;;;;;;5051046;28;20223;-60
2021/12/29 05:16:10;;;;;;;11.77;7.50;;;9.20;99.90;;;;;;5051445;28;20645;-62
2021/12/29 05:18:38;;;;;;;16.17;8.43;;;9.20;99.90;;;;;;5049980;28;20270;-59
2021/12/29 05:21:07;;;;;;;14.87;8.70;;;9.20;99.90;;;;;;5052828;28;20250;-60
2021/12/29 05:23:34;;;;;;;10.00;8.00;;;9.20;99.90;;;;;;5052689;28;21437;-60
2021/12/29 05:26:01;;;;;;;19.07;8.73;;;9.20;99.90;;;;;;5052775;28;20221;-60
2021/12/29 05:28:28;;;;;;;17.17;7.90;;;9.20;99.90;;;;;;5053400;28;20653;-60
2021/12/29 05:30:55;;;;;;;11.57;8.50;;;9.20;99.90;;;;;;5051122;28;20211;-61
2021/12/29 05:33:22;;;;;;;12.83;8.60;;;9.20;99.90;;;;;;5050419;28;20192;-59
2021/12/29 05:35:49;;;;;;;11.47;7.90;;;9.20;99.90;;;;;;5051926;28;20200;-60
2021/12/29 05:38:16;;;;;;;12.03;7.60;;;9.20;99.90;;;;;;5052941;28;20419;-60
2021/12/29 05:40:43;;;;;;;12.93;8.17;;;9.20;99.90;;;;;;5051027;28;20669;-59
2021/12/29 05:43:10;;;;;;;12.33;8.27;;;9.20;99.90;;;;;;5054967;28;20202;-64
2021/12/29 05:45:37;;;;;;;14.77;7.63;;;9.30;99.90;;;;;;5052319;28;20235;-59
2021/12/29 05:48:05;;;;;;;12.30;7.53;;;9.20;99.90;;;;;;5051456;28;20205;-59
2021/12/29 05:50:32;;;;;;;12.03;7.60;;;9.20;99.90;;;;;;5054370;28;20606;-61
2021/12/29 05:53:01;;;;;;;12.67;7.23;;;9.30;99.90;;;;;;5054707;28;20275;-62
2021/12/29 05:55:29;;;;;;;11.80;7.20;;;9.30;99.90;;;;;;5054638;28;20635;-60
2021/12/29 05:57:56;;;;;;;11.80;7.40;;;9.20;99.90;;;;;;5052350;28;20203;-60
2021/12/29 06:00:25;;;;;;;11.40;7.63;;;9.30;99.90;;;;;;5055467;28;20786;-62
2021/12/29 06:02:53;;;;;;;12.07;7.57;;;9.30;99.90;;;;;;5054249;28;20668;-60
2021/12/29 06:05:20;;;;;;;14.53;7.90;;;9.30;99.90;;;;;;5055496;28;20303;-61
2021/12/29 06:07:50;;;;;;;11.73;7.70;;;9.30;99.90;;;;;;5053414;28;20196;-59
2021/12/29 06:10:17;;;;;;;12.43;7.27;;;9.40;99.90;;;;;;5053433;28;20292;-60
2021/12/29 06:12:44;;;;;;;16.10;7.40;;;9.50;99.90;;;;;;5052092;28;20229;-59
2021/12/29 06:15:11;;;;;;;10.60;7.03;;;9.40;99.90;;;;;;5053159;28;20191;-61
2021/12/29 06:17:38;;;;;;;13.43;8.40;;;9.40;99.90;;;;;;5053202;28;20297;-62
2021/12/29 06:20:08;;;;;;;12.03;7.20;;;9.30;99.90;;;;;;5055555;28;20286;-61
2021/12/29 06:22:35;;;;;;;13.87;7.50;;;9.30;99.90;;;;;;5070425;28;20202;-59
2021/12/29 06:25:03;;;;;;;14.10;7.40;;;9.30;99.90;;;;;;5052966;28;20297;-60
2021/12/29 06:27:31;;;;;;;16.53;7.60;;;9.30;99.90;;;;;;5051942;28;20219;-61
2021/12/29 06:29:58;;;;;;;10.67;6.90;;;9.20;99.90;;;;;;5053254;28;20242;-59
2021/12/29 06:32:26;;;;;;;14.30;7.43;;;9.20;99.90;;;;;;5054070;28;20207;-61
2021/12/29 06:34:54;;;;;;;13.97;7.30;;;9.20;99.90;;;;;;5051086;28;20210;-60
2021/12/29 06:37:22;;;;;;;16.57;7.87;;;9.10;99.90;;;;;;5048717;28;20206;-61
2021/12/29 06:39:50;;;;;;;16.63;7.60;;;9.10;99.90;;;;;;5050909;28;20990;-61
2021/12/29 06:42:17;;;;;;;11.67;7.63;;;9.10;99.90;;;;;;5050199;28;20238;-60
2021/12/29 06:44:46;;;;;;;12.77;7.50;;;9.10;99.90;;;;;;5065649;28;20220;-60
2021/12/29 06:47:13;;;;;;;12.63;6.77;;;9.10;99.90;;;;;;5052036;28;20268;-60
2021/12/29 06:49:40;;;;;;;16.50;7.73;;;9.00;99.90;;;;;;5052303;28;20716;-61
2021/12/29 06:52:07;;;;;;;13.73;7.63;;;9.10;99.90;;;;;;5054648;28;20202;-60
2021/12/29 06:54:35;;;;;;;15.33;7.90;;;9.00;99.90;;;;;;5054941;28;20268;-61
2021/12/29 06:57:03;;;;;;;14.87;7.93;;;9.10;99.90;;;;;;5050921;28;20825;-59
2021/12/29 06:59:30;;;;;;;13.87;7.17;;;9.10;99.90;;;;;;5052093;28;20209;-59
2021/12/29 07:01:57;;;;;;;11.07;7.80;;;9.10;99.90;;;;;;5049870;28;20238;-60
2021/12/29 07:04:25;;;;;;;14.27;8.20;;;9.10;99.90;;;;;;5052103;28;20191;-58
2021/12/29 07:06:53;;;;;;;16.43;9.00;;;9.10;99.90;;;;;;5053538;28;20261;-60
2021/12/29 07:09:21;;;;;;;15.53;7.70;;;9.10;99.90;;;;;;5052867;28;20236;-63
2021/12/29 07:11:49;;;;;;;13.13;7.70;;;9.10;99.90;;;;;;5050338;28;20189;-58
2021/12/29 07:14:20;;;;;;;12.20;8.10;;;9.00;99.90;;;;;;5053000;28;20271;-61
2021/12/29 07:16:49;;;;;;;16.47;7.73;;;9.00;99.90;;;;;;5056638;28;20289;-59
2021/12/29 07:19:17;;;;;;;13.57;7.90;;;9.00;99.90;;;;;;5055725;28;20597;-58
2021/12/29 07:21:45;;;;;;;10.70;7.40;;;9.00;99.90;;;;;;5059662;28;21168;-61
2021/12/29 07:24:12;;;;;;;13.93;7.60;;;9.00;99.90;;;;;;5054844;28;20207;-60
2021/12/29 07:26:42;;;;;;;15.97;7.90;;;9.00;99.90;;;;;;5059229;28;20229;-61
2021/12/29 07:29:09;;;;;;;15.80;6.63;;;9.00;99.90;;;;;;5055258;28;20202;-61
2021/12/29 07:31:39;;;;;;;15.90;7.60;;;9.00;99.90;;;;;;5056469;28;20200;-60
2021/12/29 07:34:21;;;;;;;14.30;7.20;;;9.00;99.90;;;;;;5056220;28;20282;-60
2021/12/29 07:36:49;;;;;;;9.60;6.67;;;9.10;99.90;;;;;;5051882;28;20264;-60
2021/12/29 07:39:16;;;;;;;15.63;7.23;;;9.10;99.90;;;;;;5055275;28;20818;-60
2021/12/29 07:41:45;;;;;;;14.40;7.00;;;9.00;99.90;;;;;;5055421;28;20204;-60
2021/12/29 07:44:17;;;;;;;14.77;7.17;;;9.10;99.90;;;;;;5072418;28;20272;-61
2021/12/29 07:46:47;;;;;;;12.30;6.63;;;9.10;99.90;;;;;;5056156;28;20791;-58
2021/12/29 07:49:14;;;;;;;14.73;6.77;;;9.00;99.90;;;;;;5052939;28;20231;-59
2021/12/29 07:51:42;;;;;;;13.93;6.63;;;9.10;99.90;;;;;;5057172;28;20723;-59
2021/12/29 07:54:09;;;;;;;8.27;6.20;;;9.00;99.90;;;;;;5054886;28;20321;-60
2021/12/29 07:56:36;;;;;;;10.83;6.23;;;9.00;99.90;;;;;;5056504;28;20332;-60
2021/12/29 07:59:04;;;;;;;14.20;6.97;;;9.10;99.90;;;;;;5054294;28;20320;-60
2021/12/29 08:01:31;;;;;;;16.60;6.17;;;9.10;99.90;;;;;;5057049;28;20306;-60
2021/12/29 08:03:58;;;;;;;11.07;5.93;;;9.00;99.90;;;;;;5054853;28;20199;-60
2021/12/29 08:06:25;;;;;;;8.63;6.17;;;9.00;99.90;;;;;;5054949;28;20265;-60
2021/12/29 08:08:52;;;;;;;9.60;6.27;;;9.00;99.90;;;;;;5058798;28;20818;-59
2021/12/29 08:11:19;;;;;;;14.07;6.57;;;8.90;99.90;;;;;;5056057;28;20286;-60
2021/12/29 08:13:47;;;;;;;12.33;5.93;;;8.90;99.90;;;;;;5057186;28;20709;-61
2021/12/29 08:16:14;;;;;;;9.80;6.07;;;9.00;99.90;;;;;;5057461;28;20642;-61
2021/12/29 08:18:41;;;;;;;11.67;6.23;;;9.00;99.90;;;;;;5054148;28;20661;-58
2021/12/29 08:21:09;;;;;;;17.13;6.20;;;9.00;99.90;;;;;;5056807;28;20244;-59
2021/12/29 08:23:35;;;;;;;12.97;6.70;;;9.10;99.90;;;;;;5056597;28;20326;-60
2021/12/29 08:26:03;;;;;;;10.63;6.67;;;9.20;99.90;;;;;;5058625;28;20244;-59
2021/12/29 08:28:30;;;;;;;10.87;6.03;;;9.30;99.90;;;;;;5055990;28;20199;-63
2021/12/29 08:30:57;;;;;;;11.00;6.50;;;9.30;99.90;;;;;;5054413;28;20283;-60
2021/12/29 08:33:24;;;;;;;7.03;5.13;;;9.20;99.90;;;;;;5058015;28;20225;-61
2021/12/29 08:35:51;;;;;;;10.77;5.93;;;9.00;99.90;;;;;;5056898;28;20587;-61
2021/12/29 08:38:18;;;;;;;8.80;5.27;;;9.10;99.90;;;;;;5043018;28;20731;-60
2021/12/29 08:40:45;;;;;;;8.67;5.53;;;9.10;99.90;;;;;;5053102;28;20661;-59
2021/12/29 08:43:14;;;;;;;9.57;5.60;;;9.20;99.90;;;;;;5054551;28;20231;-59
2021/12/29 08:45:42;;;;;;;11.60;5.37;;;9.30;99.90;;;;;;5058015;28;20193;-61
2021/12/29 08:48:11;;;;;;;7.40;5.47;;;9.20;99.90;;;;;;5053184;28;20210;-60
2021/12/29 08:50:39;;;;;;;6.70;5.07;;;9.10;99.90;;;;;;5036811;28;20228;-59
2021/12/29 08:53:08;;;;;;;7.67;5.10;;;9.20;99.90;;;;;;5055809;28;20596;-61
2021/12/29 08:55:39;;;;;;;10.90;4.83;;;9.20;99.90;;;;;;5055489;28;20227;-60
2021/12/29 08:58:06;;;;;;;10.17;4.97;;;9.20;99.90;;;;;;5053975;28;20237;-61
2021/12/29 09:00:34;;;;;;;10.20;4.90;;;9.40;99.90;;;;;;5054056;28;20632;-60
2021/12/29 09:03:01;;;;;;;8.03;4.70;;;9.40;99.90;;;;;;5053651;28;20201;-60
2021/12/29 09:05:28;;;;;;;9.80;5.10;;;9.30;99.90;;;;;;5053851;28;20208;-60
2021/12/29 09:07:55;;;;;;;8.17;5.30;;;9.30;99.90;;;;;;5053943;28;20352;-61
2021/12/29 09:10:25;;;;;;;12.23;4.70;;;9.30;99.90;;;;;;5054254;28;20224;-60
2021/12/29 09:12:55;;;;;;;9.60;4.33;;;9.40;99.90;;;;;;5054295;28;20316;-60
2021/12/29 09:15:23;;;;;;;7.03;4.40;;;9.30;99.90;;;;;;5053306;28;20202;-60
2021/12/29 09:17:50;;;;;;;5.73;4.37;;;9.40;99.90;;;;;;5053911;28;20237;-61
2021/12/29 09:20:26;;;;;;;7.53;4.77;;;9.50;99.90;;;;;;5052458;28;20261;-60
2021/12/29 09:23:01;;;;;;;8.73;5.07;;;9.30;99.90;;;;;;5051759;28;20912;-60
2021/12/29 09:25:36;;;;;;;9.10;5.30;;;9.30;99.90;;;;;;5055518;28;20192;-61
2021/12/29 09:28:04;;;;;;;6.97;5.13;;;9.30;99.90;;;;;;5054730;28;20335;-61
2021/12/29 09:30:33;;;;;;;9.23;5.67;;;9.20;99.90;;;;;;5054608;28;20254;-61
2021/12/29 09:33:01;;;;;;;10.43;5.77;;;9.20;99.90;;;;;;5071065;28;20228;-60
2021/12/29 09:35:28;;;;;;;15.50;5.83;;;9.20;99.90;;;;;;5052916;28;20302;-61
2021/12/29 09:38:00;;;;;;;10.40;5.57;;;9.20;99.90;;;;;;5051334;28;20209;-59
2021/12/29 09:40:26;;;;;;;7.30;5.73;;;9.10;99.90;;;;;;5056196;28;20238;-59
2021/12/29 09:42:54;;;;;;;8.40;5.63;;;9.10;99.90;;;;;;5050854;28;20239;-61
2021/12/29 09:45:23;;;;;;;9.60;6.00;;;9.10;99.90;;;;;;5054336;28;20283;-61
2021/12/29 09:47:50;;;;;;;8.90;6.33;;;9.10;99.90;;;;;;5068180;28;20676;-61
2021/12/29 09:50:19;;;;;;;7.90;6.40;;;9.10;99.90;;;;;;5053006;28;20196;-61
2021/12/29 09:52:47;;;;;;;9.27;6.17;;;9.10;99.90;;;;;;5051691;28;20231;-59
2021/12/29 09:55:20;;;;;;;10.53;6.53;;;9.00;99.90;;;;;;5053339;28;20617;-58
2021/12/29 09:57:49;;;;;;;12.40;7.60;;;9.20;99.90;;;;;;5065878;28;20306;-61
2021/12/29 10:00:25;;;;;;;14.57;6.53;;;9.20;99.90;;;;;;5052748;28;20236;-62
2021/12/29 10:02:53;;;;;;;9.00;6.00;;;9.20;99.90;;;;;;5054909;28;20323;-61
2021/12/29 10:05:24;;;;;;;8.93;6.43;;;9.30;99.90;;;;;;5052793;28;20212;-61
2021/12/29 10:08:14;;;;;;;10.53;7.47;;;9.50;99.90;;;;;;5052965;28;20356;-60
2021/12/29 10:10:48;;;;;;;10.80;7.07;;;9.70;99.90;;;;;;5055272;28;20852;-60
2021/12/29 10:13:16;;;;;;;8.10;6.73;;;9.80;99.90;;;;;;5052488;28;20226;-60
2021/12/29 10:15:52;;;;;;;9.07;6.80;;;9.60;99.90;;;;;;5051826;28;20798;-58
2021/12/29 10:18:24;;;;;;;10.60;6.70;;;9.50;99.90;;;;;;5050989;28;20280;-58
2021/12/29 10:20:54;;;;;;;10.80;6.67;;;9.50;99.90;;;;;;5049800;28;20333;-59
2021/12/29 10:23:30;;;;;;;8.37;5.60;;;9.40;99.90;;;;;;5048688;28;20311;-58
2021/12/29 10:26:05;;;;;;;8.20;6.23;;;9.30;99.90;;;;;;5048291;28;20303;-60
2021/12/29 10:28:34;;;;;;;10.47;5.40;;;9.30;99.90;;;;;;5051046;28;20297;-58
2021/12/29 10:31:17;;;;;;;7.87;4.93;;;9.30;99.90;;;;;;5052364;28;20307;-62
2021/12/29 10:33:51;;;;;;;10.97;5.83;;;9.30;99.90;;;;;;5049487;28;20192;-61
2021/12/29 10:36:22;;;;;;;8.07;5.37;;;9.30;99.90;;;;;;5065004;28;20242;-59
2021/12/29 10:39:12;;;;;;;9.33;5.30;;;9.30;99.90;;;;;;5066764;28;20249;-61
2021/12/29 10:41:50;;;;;;;6.93;5.57;;;9.30;99.90;;;;;;5051236;28;20232;-61
2021/12/29 10:44:31;;;;;;;10.73;5.13;;;9.30;99.90;;;;;;5050327;28;20290;-61
2021/12/29 10:47:11;;;;;;;6.97;5.27;;;9.20;99.90;;;;;;5051397;28;20268;-59
2021/12/29 10:49:53;;;;;;;11.77;5.57;;;9.20;99.90;;;;;;5051981;28;20202;-60
2021/12/29 10:52:30;;;;;;;7.90;4.80;;;9.30;99.90;;;;;;5054946;28;20629;-60
2021/12/29 10:54:58;;;;;;;5.60;4.90;;;9.30;99.90;;;;;;5053510;28;20203;-59
2021/12/29 10:57:25;;;;;;;14.03;5.80;;;9.30;99.90;;;;;;5052532;28;20777;-62
2021/12/29 10:59:57;;;;;;;10.23;5.20;;;9.30;99.90;;;;;;5044489;28;20350;-61
2021/12/29 11:02:32;;;;;;;12.67;4.73;;;9.30;99.90;;;;;;5070564;28;20204;-60
2021/12/29 11:05:03;;;;;;;8.07;4.50;;;9.30;99.90;;;;;;5061687;28;20211;-60
2021/12/29 11:07:32;;;;;;;8.87;4.97;;;9.20;99.90;;;;;;5071764;28;20217;-60
2021/12/29 11:10:13;;;;;;;7.87;5.07;;;9.30;99.90;;;;;;5061524;28;20276;-60
2021/12/29 11:12:44;;;;;;;10.03;5.00;;;9.30;99.90;;;;;;5055116;28;20220;-61
2021/12/29 11:15:29;;;;;;;7.70;4.80;;;9.30;99.90;;;;;;5054063;28;20299;-58
2021/12/29 11:18:04;;;;;;;8.63;5.07;;;9.30;99.90;;;;;;5050358;28;20207;-57
2021/12/29 11:20:31;;;;;;;10.10;4.83;;;9.30;99.90;;;;;;5051852;28;20263;-61
2021/12/29 11:23:11;;;;;;;10.27;4.83;;;9.30;99.90;;;;;;5055083;28;20228;-60
2021/12/29 11:25:39;;;;;;;8.33;5.47;;;9.30;99.90;;;;;;5054175;28;20222;-61
2021/12/29 11:28:07;;;;;;;7.97;4.53;;;9.40;99.90;;;;;;5053509;28;20237;-60
2021/12/29 11:30:39;;;;;;;7.87;5.13;;;9.40;99.90;;;;;;5057214;28;20242;-61
2021/12/29 11:33:10;;;;;;;10.00;5.53;;;9.40;99.90;;;;;;5058647;28;20249;-61
2021/12/29 11:35:45;;;;;;;9.37;4.73;;;9.50;99.90;;;;;;5072903;28;20257;-60
2021/12/29 11:38:11;;;;;;;10.50;4.50;;;9.40;99.90;;;;;;5053154;28;20606;-59
2021/12/29 11:40:45;;;;;;;7.27;4.93;;;9.50;99.90;;;;;;5053171;28;20623;-58
2021/12/29 11:43:14;;;;;;;8.13;4.70;;;9.50;99.90;;;;;;5054105;28;20300;-59
2021/12/29 11:45:42;;;;;;;8.87;4.87;;;9.60;99.90;;;;;;5050326;28;20401;-59
2021/12/29 11:48:14;;;;;;;8.50;4.50;;;9.50;99.90;;;;;;5053307;28;20286;-61
2021/12/29 11:50:59;;;;;;;7.50;5.03;;;9.40;99.90;;;;;;5055822;28;20200;-60
2021/12/29 11:53:32;;;;;;;8.07;4.80;;;9.50;99.90;;;;;;5055374;28;20230;-61
2021/12/29 11:56:03;;;;;;;13.27;4.87;;;9.60;99.90;;;;;;5056661;28;20297;-59
2021/12/29 11:58:34;;;;;;;10.90;5.30;;;9.50;99.90;;;;;;5051763;28;20294;-61
2021/12/29 12:01:00;;;;;;;12.57;5.10;;;9.70;99.90;;;;;;5052982;28;20213;-59
2021/12/29 12:03:45;;;;;;;9.73;5.27;;;9.70;99.90;;;;;;5052564;28;20280;-59
2021/12/29 12:06:27;;;;;;;9.43;4.67;;;9.70;99.90;;;;;;5049201;28;20196;-61
2021/12/29 12:09:13;;;;;;;8.40;5.10;;;9.60;99.90;;;;;;5056276;28;20785;-61
2021/12/29 12:11:51;;;;;;;12.60;4.37;;;9.60;99.90;;;;;;5058276;28;20231;-60
2021/12/29 12:14:17;;;;;;;11.07;4.03;;;9.60;99.90;;;;;;5051852;28;20227;-59
2021/12/29 12:16:59;;;;;;;8.87;4.80;;;9.50;99.90;;;;;;5053062;28;20200;-61
2021/12/29 12:19:29;;;;;;;9.73;4.17;;;9.40;99.90;;;;;;5055227;28;21223;-59
2021/12/29 12:22:09;;;;;;;6.50;3.97;;;9.40;99.90;;;;;;5056222;28;20287;-59
2021/12/29 12:24:39;;;;;;;8.37;4.17;;;9.50;99.90;;;;;;5055319;28;20229;-61
2021/12/29 12:27:11;;;;;;;4.83;3.57;;;9.50;99.90;;;;;;5052091;28;20627;-58
2021/12/29 12:29:41;;;;;;;7.00;3.73;;;9.50;99.90;;;;;;5050740;28;20206;-60
2021/12/29 12:32:19;;;;;;;7.30;3.43;;;9.50;99.90;;;;;;5057660;28;20242;-60
2021/12/29 12:34:57;;;;;;;9.20;4.47;;;9.40;99.90;;;;;;5050927;28;20292;-60
2021/12/29 12:37:34;;;;;;;9.90;3.80;;;9.50;99.90;;;;;;5051111;28;20295;-61
2021/12/29 12:40:06;;;;;;;8.13;3.50;;;9.50;99.90;;;;;;5054252;28;20306;-61
2021/12/29 12:42:34;;;;;;;9.63;3.77;;;9.40;99.90;;;;;;5048029;28;20264;-60
2021/12/29 12:45:02;;;;;;;9.20;3.90;;;9.40;99.90;;;;;;5065065;28;21340;-58
2021/12/29 12:47:32;;;;;;;4.77;3.30;;;9.40;99.90;;;;;;5048125;28;20661;-61
2021/12/29 12:50:01;;;;;;;7.00;3.40;;;9.40;99.90;;;;;;5054141;28;20261;-61
2021/12/29 12:52:43;;;;;;;7.93;3.27;;;9.40;99.90;;;;;;5050746;28;22836;-60
2021/12/29 12:55:11;;;;;;;6.07;3.23;;;9.50;99.90;;;;;;5044746;28;20213;-60
2021/12/29 12:57:44;;;;;;;7.80;3.20;;;9.40;99.90;;;;;;5050111;28;20208;-61
2021/12/29 13:00:16;;;;;;;6.20;3.10;;;9.50;99.90;;;;;;5051556;28;20329;-59
2021/12/29 13:02:51;;;;;;;8.10;3.80;;;9.50;99.90;;;;;;5052213;28;20613;-59
2021/12/29 13:05:26;;;;;;;12.27;3.60;;;9.50;99.90;;;;;;5054679;28;21528;-60
2021/12/29 13:08:22;;;;;;;10.83;3.40;;;9.40;99.90;;;;;;5054362;28;20567;-61